createdAt,value
2023-02-16T00:01:50.679Z,22.95
2023-02-16T00:04:29.367Z,23.98
2023-02-16T00:06:56.843Z,23.05
2023-02-16T00:09:24.605Z,23.27
2023-02-16T00:12:11.840Z,27.40
2023-02-16T00:14:39.627Z,23.08
2023-02-16T00:17:06.793Z,24.45
2023-02-16T00:19:39.199Z,24.52
2023-02-16T00:22:07.793Z,22.45
2023-02-16T00:24:35.015Z,23.40
2023-02-16T00:27:01.920Z,26.10
2023-02-16T00:29:31.777Z,25.27
2023-02-16T00:32:00.617Z,25.05
2023-02-16T00:34:40.050Z,23.10
2023-02-16T00:37:13.457Z,24.73
2023-02-16T00:39:41.714Z,26.67
2023-02-16T00:42:20.341Z,24.45
2023-02-16T00:44:53.117Z,23.60
2023-02-16T00:47:34.665Z,22.58
2023-02-16T00:50:01.551Z,26.42
2023-02-16T00:52:42.757Z,22.17
2023-02-16T00:55:12.575Z,24.25
2023-02-16T00:57:43.168Z,24.55
2023-02-16T01:00:22.822Z,21.45
2023-02-16T01:02:51.888Z,24.15
2023-02-16T01:05:19.118Z,23.42
2023-02-16T01:08:04.851Z,22.58
2023-02-16T01:10:51.376Z,23.70
2023-02-16T01:13:18.233Z,23.85
2023-02-16T01:15:45.578Z,21.38
2023-02-16T01:18:16.886Z,24.90
2023-02-16T01:20:43.775Z,22.70
2023-02-16T01:23:10.467Z,25.15
2023-02-16T01:25:37.934Z,21.52
2023-02-16T01:28:21.634Z,20.27
2023-02-16T01:30:49.208Z,22.63
2023-02-16T01:33:16.158Z,21.15
2023-02-16T01:35:43.462Z,24.05
2023-02-16T01:38:21.950Z,25.48
2023-02-16T01:40:57.592Z,22.45
2023-02-16T01:43:42.217Z,26.33
2023-02-16T01:46:17.510Z,22.13
2023-02-16T01:48:44.289Z,22.67
2023-02-16T01:51:20.074Z,24.23
2023-02-16T01:53:53.169Z,23.00
2023-02-16T01:56:33.960Z,20.85
2023-02-16T01:59:08.910Z,20.30
2023-02-16T02:01:55.917Z,22.73
2023-02-16T02:05:21.755Z,23.08
2023-02-16T02:07:52.313Z,23.23
2023-02-16T02:10:30.503Z,28.73
2023-02-16T02:13:02.635Z,22.67
2023-02-16T02:15:31.691Z,23.25
2023-02-16T02:17:58.613Z,23.33
2023-02-16T02:20:52.947Z,21.60
2023-02-16T02:23:47.489Z,22.17
2023-02-16T02:26:40.838Z,24.42
2023-02-16T02:29:13.441Z,25.13
2023-02-16T02:31:46.280Z,19.85
2023-02-16T02:35:01.782Z,19.33
2023-02-16T02:37:56.672Z,22.38
2023-02-16T02:40:30.728Z,23.27
2023-02-16T02:43:11.433Z,23.45
2023-02-16T02:45:47.274Z,21.60
2023-02-16T02:48:13.990Z,19.15
2023-02-16T02:51:06.755Z,20.25
2023-02-16T02:53:41.377Z,25.45
2023-02-16T02:56:28.101Z,21.63
2023-02-16T02:59:17.952Z,20.17
2023-02-16T03:01:49.891Z,23.33
2023-02-16T03:04:23.878Z,22.60
2023-02-16T03:06:54.197Z,17.13
2023-02-16T03:09:21.442Z,18.20
2023-02-16T03:12:08.791Z,20.63
2023-02-16T03:14:46.608Z,20.02
2023-02-16T03:17:36.383Z,20.55
2023-02-16T03:20:26.463Z,19.27
2023-02-16T03:25:59.087Z,20.95
2023-02-16T03:28:48.162Z,22.83
2023-02-16T03:31:20.076Z,22.63
2023-02-16T03:33:54.432Z,18.65
2023-02-16T03:36:31.540Z,16.88
2023-02-16T03:38:59.547Z,15.80
2023-02-16T03:41:27.008Z,17.85
2023-02-16T03:43:53.715Z,20.30
2023-02-16T03:46:20.410Z,16.98
2023-02-16T03:48:47.128Z,19.42
2023-02-16T03:51:13.822Z,18.98
2023-02-16T03:53:40.638Z,18.60
2023-02-16T03:56:07.406Z,18.35
2023-02-16T03:58:34.295Z,17.45
2023-02-16T04:01:01.184Z,18.75
2023-02-16T04:03:28.077Z,17.83
2023-02-16T04:05:56.221Z,16.48
2023-02-16T04:08:22.989Z,17.33
2023-02-16T04:10:49.701Z,18.33
2023-02-16T04:13:16.469Z,14.27
2023-02-16T04:15:43.234Z,17.50
2023-02-16T04:18:10.135Z,15.60
2023-02-16T04:20:37.008Z,15.95
2023-02-16T04:23:04.293Z,18.58
2023-02-16T04:25:31.159Z,13.98
2023-02-16T04:27:58.234Z,18.55
2023-02-16T04:30:29.335Z,17.58
2023-02-16T04:32:56.869Z,16.83
2023-02-16T04:35:23.744Z,16.77
2023-02-16T04:37:50.515Z,18.48
2023-02-16T04:40:18.145Z,14.80
2023-02-16T04:42:45.431Z,16.50
2023-02-16T04:45:13.042Z,15.93
2023-02-16T04:47:39.862Z,17.70
2023-02-16T04:50:07.740Z,16.85
2023-02-16T04:52:34.578Z,16.48
2023-02-16T04:55:01.289Z,17.92
2023-02-16T04:57:28.199Z,16.67
2023-02-16T04:59:55.250Z,16.65
2023-02-16T05:02:22.031Z,18.33
2023-02-16T05:04:48.816Z,18.58
2023-02-16T05:07:15.648Z,14.77
2023-02-16T05:09:42.441Z,15.73
2023-02-16T05:12:29.850Z,15.75
2023-02-16T05:14:56.566Z,22.10
2023-02-16T05:17:26.506Z,15.80
2023-02-16T05:19:56.111Z,14.70
2023-02-16T05:22:23.566Z,16.63
2023-02-16T05:24:50.697Z,16.83
2023-02-16T05:27:22.935Z,18.27
2023-02-16T05:29:50.482Z,13.50
2023-02-16T05:32:17.369Z,15.07
2023-02-16T05:34:45.522Z,15.98
2023-02-16T05:37:13.665Z,14.95
2023-02-16T05:39:40.553Z,17.35
2023-02-16T05:42:07.385Z,14.65
2023-02-16T05:44:34.090Z,14.32
2023-02-16T05:47:00.989Z,16.55
2023-02-16T05:49:27.685Z,15.77
2023-02-16T05:51:54.380Z,17.25
2023-02-16T05:54:21.137Z,13.98
2023-02-16T05:56:50.788Z,16.20
2023-02-16T05:59:17.876Z,14.88
2023-02-16T06:01:47.939Z,16.10
2023-02-16T06:04:17.337Z,11.57
2023-02-16T06:06:44.304Z,16.30
2023-02-16T06:09:11.831Z,12.95
2023-02-16T06:11:39.036Z,11.88
2023-02-16T06:14:10.022Z,13.13
2023-02-16T06:16:38.458Z,18.02
2023-02-16T06:19:05.995Z,15.63
2023-02-16T06:21:33.382Z,12.77
2023-02-16T06:24:00.403Z,12.93
2023-02-16T06:26:27.379Z,14.02
2023-02-16T06:28:55.097Z,14.02
2023-02-16T06:31:22.031Z,12.95
2023-02-16T06:33:49.067Z,14.43
2023-02-16T06:36:16.319Z,14.55
2023-02-16T06:38:43.189Z,13.75
2023-02-16T06:41:10.277Z,15.73
2023-02-16T06:43:37.291Z,17.00
2023-02-16T06:46:04.607Z,17.25
2023-02-16T06:48:31.348Z,17.45
2023-02-16T06:50:58.142Z,15.82
2023-02-16T06:53:25.482Z,14.95
2023-02-16T06:55:52.460Z,14.82
2023-02-16T06:58:19.234Z,14.85
2023-02-16T07:00:46.058Z,17.23
2023-02-16T07:03:12.874Z,14.50
2023-02-16T07:05:39.645Z,16.25
2023-02-16T07:08:06.419Z,17.13
2023-02-16T07:10:48.656Z,23.48
2023-02-16T07:13:16.237Z,18.75
2023-02-16T07:15:42.950Z,23.45
2023-02-16T07:18:09.714Z,19.48
2023-02-16T07:20:37.798Z,20.50
2023-02-16T07:23:04.899Z,18.65
2023-02-16T07:25:31.639Z,17.92
2023-02-16T07:27:58.546Z,18.10
2023-02-16T07:30:25.421Z,19.35
2023-02-16T07:32:52.245Z,17.75
2023-02-16T07:35:19.022Z,19.02
2023-02-16T07:37:45.753Z,18.83
2023-02-16T07:40:13.380Z,17.10
2023-02-16T07:42:40.165Z,16.02
2023-02-16T07:45:07.274Z,13.43
2023-02-16T07:47:34.003Z,12.65
2023-02-16T07:50:00.820Z,15.95
2023-02-16T07:52:31.059Z,14.98
2023-02-16T07:54:59.059Z,15.05
2023-02-16T07:57:27.629Z,12.98
2023-02-16T07:59:55.308Z,12.65
2023-02-16T08:02:23.179Z,13.05
2023-02-16T08:04:52.746Z,15.18
2023-02-16T08:07:20.143Z,9.70
2023-02-16T08:09:47.164Z,9.25
2023-02-16T08:12:15.322Z,11.15
2023-02-16T08:14:42.362Z,11.68
2023-02-16T08:17:09.794Z,9.30
2023-02-16T08:19:39.335Z,9.68
2023-02-16T08:22:07.124Z,11.07
2023-02-16T08:24:34.461Z,12.50
2023-02-16T08:27:03.833Z,8.50
2023-02-16T08:29:31.267Z,10.07
2023-02-16T08:31:58.289Z,8.68
2023-02-16T08:34:26.384Z,9.75
2023-02-16T08:36:56.445Z,10.70
2023-02-16T08:39:26.093Z,10.38
2023-02-16T08:41:53.836Z,9.23
2023-02-16T08:44:22.545Z,9.77
2023-02-16T08:46:52.222Z,11.88
2023-02-16T08:49:20.087Z,9.40
2023-02-16T08:51:49.579Z,9.00
2023-02-16T08:54:30.137Z,9.77
2023-02-16T08:56:58.856Z,10.80
2023-02-16T08:59:28.417Z,8.00
2023-02-16T09:01:56.671Z,11.48
2023-02-16T09:04:24.537Z,8.98
2023-02-16T09:06:52.332Z,9.82
2023-02-16T09:09:19.679Z,10.48
2023-02-16T09:11:46.937Z,8.07
2023-02-16T09:14:14.577Z,9.35
2023-02-16T09:16:45.496Z,11.10
2023-02-16T09:19:18.975Z,7.18
2023-02-16T09:21:47.107Z,9.93
2023-02-16T09:24:14.272Z,9.90
2023-02-16T09:26:42.931Z,10.82
2023-02-16T09:29:12.307Z,10.95
2023-02-16T09:31:39.693Z,13.82
2023-02-16T09:34:16.517Z,12.85
2023-02-16T09:36:43.816Z,14.27
2023-02-16T09:39:10.824Z,13.75
2023-02-16T09:42:00.890Z,15.23
2023-02-16T09:44:30.315Z,12.35
2023-02-16T09:47:00.004Z,16.23
2023-02-16T09:49:33.250Z,17.90
2023-02-16T09:52:13.413Z,14.80
2023-02-16T09:54:46.648Z,11.63
2023-02-16T09:57:31.608Z,13.63
2023-02-16T10:00:04.458Z,13.50
2023-02-16T10:02:39.150Z,15.88
2023-02-16T10:05:09.726Z,16.33
2023-02-16T10:08:09.514Z,11.77
2023-02-16T10:10:50.796Z,14.70
2023-02-16T10:13:40.577Z,12.48
2023-02-16T10:16:15.615Z,12.65
2023-02-16T10:18:49.452Z,18.85
2023-02-16T10:21:22.358Z,11.10
2023-02-16T10:24:11.222Z,14.93
2023-02-16T10:26:47.052Z,14.10
2023-02-16T10:29:20.664Z,11.07
2023-02-16T10:32:17.001Z,10.90
2023-02-16T10:34:55.244Z,10.25
2023-02-16T10:37:36.985Z,13.90
2023-02-16T10:40:09.446Z,12.70
2023-02-16T10:43:01.045Z,12.10
2023-02-16T10:45:35.851Z,14.68
2023-02-16T10:48:02.790Z,12.50
2023-02-16T10:50:53.721Z,13.85
2023-02-16T10:53:29.603Z,12.40
2023-02-16T10:55:58.396Z,11.27
2023-02-16T10:58:28.938Z,15.05
2023-02-16T11:01:16.564Z,8.95
2023-02-16T11:03:49.981Z,13.88
2023-02-16T11:06:21.691Z,10.25
2023-02-16T11:08:56.490Z,11.63
2023-02-16T11:11:35.770Z,11.57
2023-02-16T11:14:09.424Z,9.77
2023-02-16T11:16:36.695Z,12.00
2023-02-16T11:19:18.311Z,9.38
2023-02-16T11:21:47.334Z,10.73
2023-02-16T11:24:24.933Z,11.38
2023-02-16T11:27:04.598Z,11.60
2023-02-16T11:29:31.618Z,12.20
2023-02-16T11:31:59.268Z,10.32
2023-02-16T11:34:40.027Z,12.35
2023-02-16T11:37:27.627Z,10.88
2023-02-16T11:40:09.233Z,13.00
2023-02-16T11:42:43.852Z,12.70
2023-02-16T11:45:35.624Z,12.32
2023-02-16T11:48:11.176Z,11.40
2023-02-16T11:50:57.212Z,12.40
2023-02-16T11:53:30.800Z,11.02
2023-02-16T11:56:22.882Z,11.55
2023-02-16T11:59:20.725Z,9.57
2023-02-16T12:01:58.116Z,14.38
2023-02-16T12:04:49.166Z,12.52
2023-02-16T12:07:53.702Z,10.63
2023-02-16T12:10:32.971Z,10.43
2023-02-16T12:13:15.021Z,10.30
2023-02-16T12:15:57.115Z,13.40
2023-02-16T12:18:51.103Z,10.95
2023-02-16T12:21:23.786Z,11.63
2023-02-16T12:24:13.885Z,13.70
2023-02-16T12:26:50.722Z,10.77
2023-02-16T12:29:46.125Z,11.60
2023-02-16T12:32:33.740Z,10.38
2023-02-16T12:35:19.031Z,7.70
2023-02-16T12:38:39.635Z,7.35
